Terminal Aerodrome Forecast
Issued by NWS Wakefield, VA

Home | Current Version | Previous Version | Text Only | Print | Product List | Glossary On
Versions: 1 2 3 4 5 6 7 8 9 10 11 12 13 14 15 16 17
000
FTUS41 KAKQ 241744 CCA
TAFECG
TAF COR
KECG 241744Z 2418/2518 11019G29KT 5SM -RA SCT015 OVC040
      TEMPO 2418/2420 3SM SHRA BR BKN025
     FM242000 11018G28KT 3SM RA OVC020
     FM242300 12018G27KT 5SM RA BKN012
     FM250100 13016G25KT P6SM BKN010
     FM250700 18008KT P6SM SCT010 BKN025
     FM251300 19008KT P6SM SCT015 BKN040=

USA.gov is the U.S. government's official web portal to all federal, state and local government web resources and services.